sensor_id;sensor_type;location;lat;lon;timestamp;pressure;altitude;pressure_sealevel;temperature;humidity
56334;BME280;42240;53.626;55.886;2023-04-28T00:00:43;75902.34;;;-145.10;87.15
56334;BME280;42240;53.626;55.886;2023-04-28T00:02:16;75904.31;;;-145.10;86.50
56334;BME280;42240;53.626;55.886;2023-04-28T00:03:50;75924.09;;;-145.10;88.53
56334;BME280;42240;53.626;55.886;2023-04-28T00:05:23;75943.88;;;-145.10;90.39
56334;BME280;42240;53.626;55.886;2023-04-28T00:06:56;75935.94;;;-145.10;91.04
56334;BME280;42240;53.626;55.886;2023-04-28T00:08:30;75932.00;;;-145.10;90.02
56334;BME280;42240;53.626;55.886;2023-04-28T00:10:03;75932.00;;;-145.10;91.06
56334;BME280;42240;53.626;55.886;2023-04-28T00:11:37;75941.88;;;-145.10;92.56
56334;BME280;42240;53.626;55.886;2023-04-28T00:13:10;75935.94;;;-145.10;93.82
56334;BME280;42240;53.626;55.886;2023-04-28T00:14:43;75941.88;;;-145.10;93.74
56334;BME280;42240;53.626;55.886;2023-04-28T00:16:16;75943.88;;;-145.10;94.30
56334;BME280;42240;53.626;55.886;2023-04-28T00:17:49;75928.03;;;-145.10;93.46
56334;BME280;42240;53.626;55.886;2023-04-28T00:19:23;75930.03;;;-145.10;92.49
56334;BME280;42240;53.626;55.886;2023-04-28T00:20:56;75924.09;;;-145.10;92.62
56334;BME280;42240;53.626;55.886;2023-04-28T00:22:29;75924.09;;;-145.10;91.79
56334;BME280;42240;53.626;55.886;2023-04-28T00:24:02;75951.78;;;-145.10;90.63
56334;BME280;42240;53.626;55.886;2023-04-28T00:25:35;75930.03;;;-145.10;90.74
56334;BME280;42240;53.626;55.886;2023-04-28T00:27:09;75930.03;;;-145.10;90.35
56334;BME280;42240;53.626;55.886;2023-04-28T00:28:41;75932.00;;;-145.10;90.39
56334;BME280;42240;53.626;55.886;2023-04-28T00:30:15;75937.94;;;-145.10;89.90
56334;BME280;42240;53.626;55.886;2023-04-28T00:31:48;75935.94;;;-145.10;90.81
56334;BME280;42240;53.626;55.886;2023-04-28T00:33:21;75935.94;;;-145.10;92.96
56334;BME280;42240;53.626;55.886;2023-04-28T00:34:55;75926.06;;;-145.10;92.55
56334;BME280;42240;53.626;55.886;2023-04-28T00:36:28;75928.03;;;-145.10;91.31
56334;BME280;42240;53.626;55.886;2023-04-28T00:38:03;75924.09;;;-145.10;90.93
56334;BME280;42240;53.626;55.886;2023-04-28T00:39:37;75918.16;;;-145.10;91.06
56334;BME280;42240;53.626;55.886;2023-04-28T00:41:10;75928.03;;;-145.10;90.60
56334;BME280;42240;53.626;55.886;2023-04-28T00:42:43;75928.03;;;-145.10;90.76
56334;BME280;42240;53.626;55.886;2023-04-28T00:44:16;75926.06;;;-145.10;90.60
56334;BME280;42240;53.626;55.886;2023-04-28T00:45:49;75930.03;;;-145.10;90.70
56334;BME280;42240;53.626;55.886;2023-04-28T00:47:23;75924.09;;;-145.10;90.88
56334;BME280;42240;53.626;55.886;2023-04-28T00:48:57;75926.06;;;-145.10;91.24
56334;BME280;42240;53.626;55.886;2023-04-28T00:50:30;75924.09;;;-145.10;91.08
56334;BME280;42240;53.626;55.886;2023-04-28T00:52:07;75935.94;;;-145.10;90.78
56334;BME280;42240;53.626;55.886;2023-04-28T00:53:41;75916.19;;;-145.10;90.96
56334;BME280;42240;53.626;55.886;2023-04-28T00:55:15;75912.22;;;-145.10;90.87
56334;BME280;42240;53.626;55.886;2023-04-28T00:56:48;75928.03;;;-145.10;92.39
56334;BME280;42240;53.626;55.886;2023-04-28T00:58:22;75924.09;;;-145.10;91.79
56334;BME280;42240;53.626;55.886;2023-04-28T00:59:55;75965.59;;;-145.10;91.63
56334;BME280;42240;53.626;55.886;2023-04-28T01:01:28;75916.19;;;-145.10;92.29
56334;BME280;42240;53.626;55.886;2023-04-28T01:03:02;75910.25;;;-145.10;92.50
56334;BME280;42240;53.626;55.886;2023-04-28T01:04:38;75900.38;;;-145.10;91.70
56334;BME280;42240;53.626;55.886;2023-04-28T01:06:12;75856.88;;;-145.10;89.70
56334;BME280;42240;53.626;55.886;2023-04-28T01:07:46;75817.31;;;-145.10;88.28
56334;BME280;42240;53.626;55.886;2023-04-28T01:09:19;75815.34;;;-145.10;86.77
56334;BME280;42240;53.626;55.886;2023-04-28T01:10:55;75758.03;;;-145.10;84.60
56334;BME280;42240;53.626;55.886;2023-04-28T01:12:48;75694.75;;;-145.10;82.03
56334;BME280;42240;53.626;55.886;2023-04-28T01:14:21;75627.53;;;-145.10;79.82
56334;BME280;42240;53.626;55.886;2023-04-28T01:15:57;75578.13;;;-145.10;76.79
56334;BME280;42240;53.626;55.886;2023-04-28T01:17:30;75522.75;;;-145.10;73.42
56334;BME280;42240;53.626;55.886;2023-04-28T01:19:06;75485.19;;;-145.10;70.01
56334;BME280;42240;53.626;55.886;2023-04-28T01:20:42;75443.69;;;-145.10;67.88
56334;BME280;42240;53.626;55.886;2023-04-28T01:22:15;75443.69;;;-145.10;65.84
56334;BME280;42240;53.626;55.886;2023-04-28T01:23:48;75421.94;;;-145.10;63.32
56334;BME280;42240;53.626;55.886;2023-04-28T01:25:21;75388.34;;;-145.10;61.05
56334;BME280;42240;53.626;55.886;2023-04-28T01:26:54;75338.91;;;-145.10;59.35
56334;BME280;42240;53.626;55.886;2023-04-28T01:28:27;75309.28;;;-145.10;56.79
56334;BME280;42240;53.626;55.886;2023-04-28T01:30:00;75285.53;;;-145.10;55.78
56334;BME280;42240;53.626;55.886;2023-04-28T01:31:35;75315.19;;;-145.10;54.87
56334;BME280;42240;53.626;55.886;2023-04-28T01:33:08;75338.91;;;-145.10;54.91
56334;BME280;42240;53.626;55.886;2023-04-28T01:34:41;75289.50;;;-145.10;54.87
56334;BME280;42240;53.626;55.886;2023-04-28T01:36:14;75279.63;;;-145.10;54.46
56334;BME280;42240;53.626;55.886;2023-04-28T01:37:48;75305.31;;;-145.10;54.41
56334;BME280;42240;53.626;55.886;2023-04-28T01:39:21;75275.66;;;-145.10;54.12
56334;BME280;42240;53.626;55.886;2023-04-28T01:40:54;75230.19;;;-145.10;52.19
56334;BME280;42240;53.626;55.886;2023-04-28T01:42:28;75184.72;;;-145.10;50.30
56334;BME280;42240;53.626;55.886;2023-04-28T01:44:01;75137.28;;;-145.10;49.22
56334;BME280;42240;53.626;55.886;2023-04-28T01:45:34;75145.19;;;-145.10;48.50
56334;BME280;42240;53.626;55.886;2023-04-28T01:47:07;75087.88;;;-145.10;48.26
56334;BME280;42240;53.626;55.886;2023-04-28T01:48:40;75050.31;;;-145.10;47.50
56334;BME280;42240;53.626;55.886;2023-04-28T01:50:15;74991.03;;;-145.10;46.87
56334;BME280;42240;53.626;55.886;2023-04-28T01:51:48;74963.34;;;-145.10;46.38
56334;BME280;42240;53.626;55.886;2023-04-28T01:53:21;74983.13;;;-145.10;45.33
56334;BME280;42240;53.626;55.886;2023-04-28T01:54:54;74915.91;;;-145.10;45.62
56334;BME280;42240;53.626;55.886;2023-04-28T01:56:27;74908.00;;;-145.10;44.73
56334;BME280;42240;53.626;55.886;2023-04-28T01:58:02;74915.91;;;-145.10;44.33
56334;BME280;42240;53.626;55.886;2023-04-28T01:59:35;74874.41;;;-145.10;44.82
56334;BME280;42240;53.626;55.886;2023-04-28T02:01:10;74821.03;;;-145.10;44.27
56334;BME280;42240;53.626;55.886;2023-04-28T02:02:43;74797.31;;;-145.10;43.55
56334;BME280;42240;53.626;55.886;2023-04-28T02:04:16;74741.97;;;-145.10;43.33
56334;BME280;42240;53.626;55.886;2023-04-28T02:05:50;74702.44;;;-145.10;42.23
56334;BME280;42240;53.626;55.886;2023-04-28T02:07:23;74670.81;;;-145.10;41.81
56334;BME280;42240;53.626;55.886;2023-04-28T02:08:57;74676.75;;;-145.10;41.53
56334;BME280;42240;53.626;55.886;2023-04-28T02:10:29;74678.72;;;-145.10;41.64
56334;BME280;42240;53.626;55.886;2023-04-28T02:12:03;74623.38;;;-145.10;40.86
56334;BME280;42240;53.626;55.886;2023-04-28T02:13:36;74597.69;;;-145.10;40.82
56334;BME280;42240;53.626;55.886;2023-04-28T02:15:09;74568.06;;;-145.10;40.60
56334;BME280;42240;53.626;55.886;2023-04-28T02:16:42;74542.34;;;-145.10;40.34
56334;BME280;42240;53.626;55.886;2023-04-28T02:18:16;74502.84;;;-145.10;39.19
56334;BME280;42240;53.626;55.886;2023-04-28T02:19:54;74496.91;;;-145.10;39.21
56334;BME280;42240;53.626;55.886;2023-04-28T02:21:28;74479.13;;;-145.10;38.85
56334;BME280;42240;53.626;55.886;2023-04-28T02:23:00;74437.63;;;-145.10;38.54
56334;BME280;42240;53.626;55.886;2023-04-28T02:24:35;74386.22;;;-145.10;37.85
56334;BME280;42240;53.626;55.886;2023-04-28T02:26:08;74334.84;;;-145.10;37.56
56334;BME280;42240;53.626;55.886;2023-04-28T02:27:41;74307.19;;;-145.10;36.98
56334;BME280;42240;53.626;55.886;2023-04-28T02:29:14;74293.34;;;-145.10;36.90
56334;BME280;42240;53.626;55.886;2023-04-28T02:30:48;74224.19;;;-145.10;36.16
56334;BME280;42240;53.626;55.886;2023-04-28T02:32:21;74192.56;;;-145.10;35.15
56334;BME280;42240;53.626;55.886;2023-04-28T02:33:55;74198.47;;;-145.10;34.88
56334;BME280;42240;53.626;55.886;2023-04-28T02:35:28;74160.94;;;-145.10;34.68
56334;BME280;42240;53.626;55.886;2023-04-28T02:37:02;74133.28;;;-145.10;34.55
56334;BME280;42240;53.626;55.886;2023-04-28T02:38:35;74064.09;;;-145.10;34.26
56334;BME280;42240;53.626;55.886;2023-04-28T02:40:10;74068.06;;;-145.10;33.55
56334;BME280;42240;53.626;55.886;2023-04-28T02:41:43;74034.47;;;-145.10;33.79
56334;BME280;42240;53.626;55.886;2023-04-28T02:43:16;73983.09;;;-145.10;33.73
56334;BME280;42240;53.626;55.886;2023-04-28T02:44:49;73965.28;;;-145.10;33.28
56334;BME280;42240;53.626;55.886;2023-04-28T02:46:22;73886.25;;;-145.10;33.08
56334;BME280;42240;53.626;55.886;2023-04-28T02:47:56;73848.72;;;-145.10;33.09
56334;BME280;42240;53.626;55.886;2023-04-28T02:49:29;73819.06;;;-145.10;32.45
56334;BME280;42240;53.626;55.886;2023-04-28T02:51:02;73821.03;;;-145.10;30.99
56334;BME280;42240;53.626;55.886;2023-04-28T02:52:37;73793.38;;;-145.10;30.50
56334;BME280;42240;53.626;55.886;2023-04-28T02:54:10;73817.09;;;-145.10;30.23
56334;BME280;42240;53.626;55.886;2023-04-28T02:55:43;73732.13;;;-145.10;29.49
56334;BME280;42240;53.626;55.886;2023-04-28T02:57:16;73742.00;;;-145.10;29.18
56334;BME280;42240;53.626;55.886;2023-04-28T02:58:49;73718.28;;;-145.10;29.04
56334;BME280;42240;53.626;55.886;2023-04-28T03:00:22;73657.03;;;-145.10;29.25
56334;BME280;42240;53.626;55.886;2023-04-28T03:02:06;73670.88;;;-145.10;28.95
56334;BME280;42240;53.626;55.886;2023-04-28T03:03:40;73643.19;;;-145.10;29.00
56334;BME280;42240;53.626;55.886;2023-04-28T03:05:14;73601.72;;;-145.10;28.71
56334;BME280;42240;53.626;55.886;2023-04-28T03:06:47;73599.72;;;-145.10;28.72
56334;BME280;42240;53.626;55.886;2023-04-28T03:08:21;73562.19;;;-145.10;28.64
56334;BME280;42240;53.626;55.886;2023-04-28T03:09:54;73568.13;;;-145.10;27.76
56334;BME280;42240;53.626;55.886;2023-04-28T03:11:27;73514.78;;;-145.10;27.99
56334;BME280;42240;53.626;55.886;2023-04-28T03:13:00;73487.09;;;-145.10;27.57
56334;BME280;42240;53.626;55.886;2023-04-28T03:14:34;73457.47;;;-145.10;27.60
56334;BME280;42240;53.626;55.886;2023-04-28T03:16:08;73459.44;;;-145.10;27.01
56334;BME280;42240;53.626;55.886;2023-04-28T03:17:41;73412.03;;;-145.10;27.15
56334;BME280;42240;53.626;55.886;2023-04-28T03:19:14;73447.59;;;-145.10;27.51
56334;BME280;42240;53.626;55.886;2023-04-28T03:20:48;73372.50;;;-145.10;26.94
56334;BME280;42240;53.626;55.886;2023-04-28T03:22:21;73358.69;;;-145.10;26.47
56334;BME280;42240;53.626;55.886;2023-04-28T03:23:54;73334.97;;;-145.10;26.11
56334;BME280;42240;53.626;55.886;2023-04-28T03:25:27;73327.06;;;-145.10;26.94
56334;BME280;42240;53.626;55.886;2023-04-28T03:27:00;73384.38;;;-145.10;26.66
56334;BME280;42240;53.626;55.886;2023-04-28T03:28:35;73307.31;;;-145.10;25.84
56334;BME280;42240;53.626;55.886;2023-04-28T03:30:09;73390.28;;;-145.10;25.57
56334;BME280;42240;53.626;55.886;2023-04-28T03:31:42;73340.91;;;-145.10;25.79
56334;BME280;42240;53.626;55.886;2023-04-28T03:33:15;73252.00;;;-145.10;25.30
56334;BME280;42240;53.626;55.886;2023-04-28T03:34:48;73232.22;;;-145.10;25.41
56334;BME280;42240;53.626;55.886;2023-04-28T03:36:21;73315.22;;;-145.10;25.04
56334;BME280;42240;53.626;55.886;2023-04-28T03:37:54;73350.78;;;-145.10;25.17
56334;BME280;42240;53.626;55.886;2023-04-28T03:39:27;73425.84;;;-145.10;25.36
56334;BME280;42240;53.626;55.886;2023-04-28T03:41:01;73370.53;;;-145.10;25.53
56334;BME280;42240;53.626;55.886;2023-04-28T03:42:34;73291.50;;;-145.10;25.47
56334;BME280;42240;53.626;55.886;2023-04-28T03:44:12;73287.56;;;-145.10;25.31
56334;BME280;42240;53.626;55.886;2023-04-28T03:45:51;73273.72;;;-145.10;25.55
56334;BME280;42240;53.626;55.886;2023-04-28T03:47:24;73244.09;;;-145.10;25.14
56334;BME280;42240;53.626;55.886;2023-04-28T03:48:57;73263.84;;;-145.10;25.16
56334;BME280;42240;53.626;55.886;2023-04-28T03:50:30;73232.22;;;-145.10;25.08
56334;BME280;42240;53.626;55.886;2023-04-28T03:52:03;73259.88;;;-145.10;25.05
56334;BME280;42240;53.626;55.886;2023-04-28T03:53:36;73301.38;;;-145.10;25.11
56334;BME280;42240;53.626;55.886;2023-04-28T03:55:09;73311.25;;;-145.10;24.74
56334;BME280;42240;53.626;55.886;2023-04-28T03:56:43;73208.53;;;-145.10;24.64
56334;BME280;42240;53.626;55.886;2023-04-28T03:58:16;73151.22;;;-145.10;24.75
56334;BME280;42240;53.626;55.886;2023-04-28T03:59:49;73141.34;;;-145.10;24.75
56334;BME280;42240;53.626;55.886;2023-04-28T04:01:23;73117.63;;;-145.10;24.57
56334;BME280;42240;53.626;55.886;2023-04-28T04:02:57;73062.31;;;-145.10;24.23
56334;BME280;42240;53.626;55.886;2023-04-28T04:04:30;73030.72;;;-145.10;24.26
56334;BME280;42240;53.626;55.886;2023-04-28T04:06:05;73036.63;;;-145.10;24.46
56334;BME280;42240;53.626;55.886;2023-04-28T04:07:38;73058.38;;;-145.10;24.29
56334;BME280;42240;53.626;55.886;2023-04-28T04:09:11;73086.03;;;-145.10;24.05
56334;BME280;42240;53.626;55.886;2023-04-28T04:10:45;73117.63;;;-145.10;24.31
56334;BME280;42240;53.626;55.886;2023-04-28T04:12:19;73097.88;;;-145.10;24.20
56334;BME280;42240;53.626;55.886;2023-04-28T04:13:51;73062.31;;;-145.10;24.26
56334;BME280;42240;53.626;55.886;2023-04-28T04:15:26;73143.31;;;-145.10;24.26
56334;BME280;42240;53.626;55.886;2023-04-28T04:17:00;73149.25;;;-145.10;24.33
56334;BME280;42240;53.626;55.886;2023-04-28T04:18:33;73165.06;;;-145.10;23.70
56334;BME280;42240;53.626;55.886;2023-04-28T04:20:19;73165.06;;;-145.10;23.87
56334;BME280;42240;53.626;55.886;2023-04-28T04:21:52;73095.91;;;-145.10;24.47
56334;BME280;42240;53.626;55.886;2023-04-28T04:23:25;73097.88;;;-145.10;24.18
56334;BME280;42240;53.626;55.886;2023-04-28T04:24:59;73070.22;;;-145.10;24.14
56334;BME280;42240;53.626;55.886;2023-04-28T04:26:34;73163.09;;;-145.10;23.78
56334;BME280;42240;53.626;55.886;2023-04-28T04:28:19;73289.53;;;-145.10;24.30
56334;BME280;42240;53.626;55.886;2023-04-28T04:29:53;73180.84;;;-145.10;24.30
56334;BME280;42240;53.626;55.886;2023-04-28T04:31:26;73078.13;;;-145.10;24.28
56334;BME280;42240;53.626;55.886;2023-04-28T04:32:59;73042.56;;;-145.10;23.81
56334;BME280;42240;53.626;55.886;2023-04-28T04:34:32;73052.44;;;-145.10;23.58
56334;BME280;42240;53.626;55.886;2023-04-28T04:36:06;72955.63;;;-145.10;23.65
56334;BME280;42240;53.626;55.886;2023-04-28T04:37:39;72947.72;;;-145.10;23.45
56334;BME280;42240;53.626;55.886;2023-04-28T04:39:12;73091.97;;;-145.10;23.70
56334;BME280;42240;53.626;55.886;2023-04-28T04:40:45;73147.28;;;-145.10;23.93
56334;BME280;42240;53.626;55.886;2023-04-28T04:42:18;73113.69;;;-145.10;23.84
56334;BME280;42240;53.626;55.886;2023-04-28T04:44:19;73068.25;;;-145.10;23.60
56334;BME280;42240;53.626;55.886;2023-04-28T04:45:56;73042.56;;;-145.10;23.91
56334;BME280;42240;53.626;55.886;2023-04-28T04:47:29;73010.94;;;-145.10;24.02
56334;BME280;42240;53.626;55.886;2023-04-28T04:49:03;72965.50;;;-145.10;23.50
56334;BME280;42240;53.626;55.886;2023-04-28T04:50:36;73028.72;;;-145.10;23.75
56334;BME280;42240;53.626;55.886;2023-04-28T04:52:09;73091.97;;;-145.10;23.99
56334;BME280;42240;53.626;55.886;2023-04-28T04:53:42;72969.47;;;-145.10;23.63
56334;BME280;42240;53.626;55.886;2023-04-28T04:55:15;72991.19;;;-145.10;23.71
56334;BME280;42240;53.626;55.886;2023-04-28T04:56:48;72989.22;;;-145.10;23.60
56334;BME280;42240;53.626;55.886;2023-04-28T04:58:32;73034.66;;;-145.10;23.18
56334;BME280;42240;53.626;55.886;2023-04-28T05:00:23;73070.22;;;-145.10;23.55
56334;BME280;42240;53.626;55.886;2023-04-28T05:01:58;72969.47;;;-145.10;23.61
56334;BME280;42240;53.626;55.886;2023-04-28T05:03:31;72935.88;;;-145.10;23.30
56334;BME280;42240;53.626;55.886;2023-04-28T05:05:05;72987.25;;;-145.10;23.26
56334;BME280;42240;53.626;55.886;2023-04-28T05:07:13;72900.31;;;-145.10;23.40
56334;BME280;42240;53.626;55.886;2023-04-28T05:08:46;72890.44;;;-145.10;23.08
56334;BME280;42240;53.626;55.886;2023-04-28T05:10:19;73054.41;;;-145.10;23.23
56334;BME280;42240;53.626;55.886;2023-04-28T05:11:53;73028.72;;;-145.10;23.42
56334;BME280;42240;53.626;55.886;2023-04-28T05:13:25;73052.44;;;-145.10;23.59
56334;BME280;42240;53.626;55.886;2023-04-28T05:15:05;73028.72;;;-145.10;23.51
56334;BME280;42240;53.626;55.886;2023-04-28T05:16:44;72979.34;;;-145.10;23.30
56334;BME280;42240;53.626;55.886;2023-04-28T05:18:25;72920.06;;;-145.10;23.39
56334;BME280;42240;53.626;55.886;2023-04-28T05:19:58;73137.41;;;-145.10;23.84
56334;BME280;42240;53.626;55.886;2023-04-28T05:21:32;73141.34;;;-145.10;24.35
56334;BME280;42240;53.626;55.886;2023-04-28T05:23:05;72975.38;;;-145.10;23.57
56334;BME280;42240;53.626;55.886;2023-04-28T05:24:38;72967.50;;;-145.10;23.46
56334;BME280;42240;53.626;55.886;2023-04-28T05:26:11;72924.03;;;-145.10;23.39
56334;BME280;42240;53.626;55.886;2023-04-28T05:27:45;72959.59;;;-145.10;23.36
56334;BME280;42240;53.626;55.886;2023-04-28T05:29:19;72898.34;;;-145.10;23.32
56334;BME280;42240;53.626;55.886;2023-04-28T05:30:54;72880.56;;;-145.10;23.36
56334;BME280;42240;53.626;55.886;2023-04-28T05:32:27;73050.47;;;-145.10;23.41
56334;BME280;42240;53.626;55.886;2023-04-28T05:34:00;73064.28;;;-145.10;23.45
56334;BME280;42240;53.626;55.886;2023-04-28T05:35:33;72995.16;;;-145.10;23.19
56334;BME280;42240;53.626;55.886;2023-04-28T05:37:06;73107.75;;;-145.10;23.52
56334;BME280;42240;53.626;55.886;2023-04-28T05:38:43;73097.88;;;-145.10;23.87
56334;BME280;42240;53.626;55.886;2023-04-28T05:40:16;73088.00;;;-145.10;23.49
56334;BME280;42240;53.626;55.886;2023-04-28T05:41:49;73172.97;;;-145.10;23.77
56334;BME280;42240;53.626;55.886;2023-04-28T05:43:22;73113.69;;;-145.10;23.83
56334;BME280;42240;53.626;55.886;2023-04-28T05:44:55;72977.38;;;-145.10;23.23
56334;BME280;42240;53.626;55.886;2023-04-28T05:46:30;72995.16;;;-145.10;23.63
56334;BME280;42240;53.626;55.886;2023-04-28T05:48:05;73228.28;;;-145.10;24.21
56334;BME280;42240;53.626;55.886;2023-04-28T05:49:38;73240.13;;;-145.10;24.14
56334;BME280;42240;53.626;55.886;2023-04-28T05:51:12;73115.66;;;-145.10;23.84
56334;BME280;42240;53.626;55.886;2023-04-28T05:52:45;73086.03;;;-145.10;23.77
56334;BME280;42240;53.626;55.886;2023-04-28T05:54:18;72947.72;;;-145.10;23.40
56334;BME280;42240;53.626;55.886;2023-04-28T05:55:54;72900.31;;;-145.10;23.10
56334;BME280;42240;53.626;55.886;2023-04-28T05:57:27;73003.06;;;-145.10;23.06
56334;BME280;42240;53.626;55.886;2023-04-28T05:59:06;72951.69;;;-145.10;23.57
56334;BME280;42240;53.626;55.886;2023-04-28T06:00:40;72920.06;;;-145.10;23.29
56334;BME280;42240;53.626;55.886;2023-04-28T06:02:13;73040.59;;;-145.10;23.33
56334;BME280;42240;53.626;55.886;2023-04-28T06:03:47;73101.84;;;-145.10;23.72
56334;BME280;42240;53.626;55.886;2023-04-28T06:05:20;73141.34;;;-145.10;23.59
56334;BME280;42240;53.626;55.886;2023-04-28T06:06:56;73133.44;;;-145.10;23.54
56334;BME280;42240;53.626;55.886;2023-04-28T06:08:30;73123.56;;;-145.10;24.00
56334;BME280;42240;53.626;55.886;2023-04-28T06:10:03;73139.38;;;-145.10;23.64
56334;BME280;42240;53.626;55.886;2023-04-28T06:11:37;73107.75;;;-145.10;23.92
56334;BME280;42240;53.626;55.886;2023-04-28T06:13:11;73066.28;;;-145.10;23.71
56334;BME280;42240;53.626;55.886;2023-04-28T06:14:46;72951.69;;;-145.10;23.36
56334;BME280;42240;53.626;55.886;2023-04-28T06:16:19;73184.81;;;-145.10;23.62
56334;BME280;42240;53.626;55.886;2023-04-28T06:17:53;73125.53;;;-145.10;23.76
56334;BME280;42240;53.626;55.886;2023-04-28T06:19:26;73151.22;;;-145.10;23.63
56334;BME280;42240;53.626;55.886;2023-04-28T06:21:00;73133.44;;;-145.10;23.87
56334;BME280;42240;53.626;55.886;2023-04-28T06:22:33;73070.22;;;-145.10;23.94
56334;BME280;42240;53.626;55.886;2023-04-28T06:24:06;73109.75;;;-145.10;23.09
56334;BME280;42240;53.626;55.886;2023-04-28T06:25:39;73275.69;;;-145.10;23.47
56334;BME280;42240;53.626;55.886;2023-04-28T06:27:13;73364.59;;;-145.10;24.04
56334;BME280;42240;53.626;55.886;2023-04-28T06:28:46;73485.13;;;-145.10;24.14
56334;BME280;42240;53.626;55.886;2023-04-28T06:30:21;73546.38;;;-145.10;24.57
56334;BME280;42240;53.626;55.886;2023-04-28T06:31:54;73627.41;;;-145.10;24.99
56334;BME280;42240;53.626;55.886;2023-04-28T06:33:29;73757.81;;;-145.10;25.24
56334;BME280;42240;53.626;55.886;2023-04-28T06:35:05;73742.00;;;-145.10;25.93
56334;BME280;42240;53.626;55.886;2023-04-28T06:36:38;73793.38;;;-145.10;26.26
56334;BME280;42240;53.626;55.886;2023-04-28T06:38:11;73692.59;;;-145.10;26.41
56334;BME280;42240;53.626;55.886;2023-04-28T06:39:44;73627.41;;;-145.10;25.82
56334;BME280;42240;53.626;55.886;2023-04-28T06:41:17;73662.97;;;-145.10;25.58
56334;BME280;42240;53.626;55.886;2023-04-28T06:42:54;73738.06;;;-145.10;26.01
56334;BME280;42240;53.626;55.886;2023-04-28T06:44:36;73668.88;;;-145.10;25.77
56334;BME280;42240;53.626;55.886;2023-04-28T06:46:09;73599.72;;;-145.10;25.62
56334;BME280;42240;53.626;55.886;2023-04-28T06:47:47;73631.34;;;-145.10;25.19
56334;BME280;42240;53.626;55.886;2023-04-28T06:49:20;73641.22;;;-145.10;25.29
56334;BME280;42240;53.626;55.886;2023-04-28T06:50:57;73597.75;;;-145.10;25.03
56334;BME280;42240;53.626;55.886;2023-04-28T06:52:30;73583.94;;;-145.10;25.07
56334;BME280;42240;53.626;55.886;2023-04-28T06:54:11;73591.84;;;-145.10;24.55
56334;BME280;42240;53.626;55.886;2023-04-28T06:55:48;73599.72;;;-145.10;24.26
56334;BME280;42240;53.626;55.886;2023-04-28T06:57:21;73562.19;;;-145.10;24.55
56334;BME280;42240;53.626;55.886;2023-04-28T06:58:54;73623.44;;;-145.10;24.63
56334;BME280;42240;53.626;55.886;2023-04-28T07:00:30;73655.06;;;-145.10;25.02
56334;BME280;42240;53.626;55.886;2023-04-28T07:02:03;73686.69;;;-145.10;24.91
56334;BME280;42240;53.626;55.886;2023-04-28T07:03:36;73704.47;;;-145.10;24.72
56334;BME280;42240;53.626;55.886;2023-04-28T07:05:10;73896.13;;;-145.10;25.14
56334;BME280;42240;53.626;55.886;2023-04-28T07:06:45;73785.47;;;-145.10;24.81
56334;BME280;42240;53.626;55.886;2023-04-28T07:08:18;73777.56;;;-145.10;24.57
56334;BME280;42240;53.626;55.886;2023-04-28T07:09:51;73807.22;;;-145.10;24.67
56334;BME280;42240;53.626;55.886;2023-04-28T07:11:25;73807.22;;;-145.10;25.04
56334;BME280;42240;53.626;55.886;2023-04-28T07:12:58;73817.09;;;-145.10;24.98
56334;BME280;42240;53.626;55.886;2023-04-28T07:14:31;73852.66;;;-145.10;24.92
56334;BME280;42240;53.626;55.886;2023-04-28T07:16:04;73884.28;;;-145.10;25.17
56334;BME280;42240;53.626;55.886;2023-04-28T07:17:37;73836.84;;;-145.10;25.27
56334;BME280;42240;53.626;55.886;2023-04-28T07:19:10;73884.28;;;-145.10;25.87
56334;BME280;42240;53.626;55.886;2023-04-28T07:20:44;73909.97;;;-145.10;26.15
56334;BME280;42240;53.626;55.886;2023-04-28T07:22:18;73909.97;;;-145.10;26.46
56334;BME280;42240;53.626;55.886;2023-04-28T07:23:51;73862.53;;;-145.10;26.35
56334;BME280;42240;53.626;55.886;2023-04-28T07:25:28;73809.19;;;-145.10;26.05
56334;BME280;42240;53.626;55.886;2023-04-28T07:27:01;73844.75;;;-145.10;27.00
56334;BME280;42240;53.626;55.886;2023-04-28T07:28:35;73880.31;;;-145.10;26.81
56334;BME280;42240;53.626;55.886;2023-04-28T07:30:08;73848.72;;;-145.10;26.88
56334;BME280;42240;53.626;55.886;2023-04-28T07:31:59;73825.00;;;-145.10;26.79
56334;BME280;42240;53.626;55.886;2023-04-28T07:33:32;73793.38;;;-145.10;26.88
56334;BME280;42240;53.626;55.886;2023-04-28T07:35:06;73771.66;;;-145.10;26.47
56334;BME280;42240;53.626;55.886;2023-04-28T07:36:39;73773.63;;;-145.10;26.21
56334;BME280;42240;53.626;55.886;2023-04-28T07:38:12;73745.94;;;-145.10;26.22
56334;BME280;42240;53.626;55.886;2023-04-28T07:39:46;73771.66;;;-145.10;25.75
56334;BME280;42240;53.626;55.886;2023-04-28T07:41:19;73765.72;;;-145.10;25.86
56334;BME280;42240;53.626;55.886;2023-04-28T07:42:52;73761.75;;;-145.10;25.19
56334;BME280;42240;53.626;55.886;2023-04-28T07:44:25;73771.66;;;-145.10;25.67
56334;BME280;42240;53.626;55.886;2023-04-28T07:45:58;73753.84;;;-145.10;25.83
56334;BME280;42240;53.626;55.886;2023-04-28T07:47:31;73757.81;;;-145.10;25.44
56334;BME280;42240;53.626;55.886;2023-04-28T07:49:04;73817.09;;;-145.10;25.26
56334;BME280;42240;53.626;55.886;2023-04-28T07:50:38;73941.59;;;-145.10;25.76
56334;BME280;42240;53.626;55.886;2023-04-28T07:52:11;73856.63;;;-145.10;26.48
56334;BME280;42240;53.626;55.886;2023-04-28T07:53:44;73799.31;;;-145.10;25.98
56334;BME280;42240;53.626;55.886;2023-04-28T07:55:20;73787.44;;;-145.10;25.88
56334;BME280;42240;53.626;55.886;2023-04-28T07:56:55;73763.75;;;-145.10;25.88
56334;BME280;42240;53.626;55.886;2023-04-28T07:58:30;73720.25;;;-145.10;25.44
56334;BME280;42240;53.626;55.886;2023-04-28T08:00:03;73726.19;;;-145.10;25.89